sensor_id;sensor_type;location;lat;lon;timestamp;temperature;humidity
13148;DHT22;6639;50.956;4.242;2023-09-19T00:02:05;22.00;99.90
13148;DHT22;6639;50.956;4.242;2023-09-19T00:04:35;22.10;99.90
13148;DHT22;6639;50.956;4.242;2023-09-19T00:07:05;22.10;99.90
13148;DHT22;6639;50.956;4.242;2023-09-19T00:09:32;21.80;99.90
13148;DHT22;6639;50.956;4.242;2023-09-19T00:12:03;21.50;99.90
13148;DHT22;6639;50.956;4.242;2023-09-19T00:14:30;21.50;99.90
13148;DHT22;6639;50.956;4.242;2023-09-19T00:17:00;21.40;99.90
13148;DHT22;6639;50.956;4.242;2023-09-19T00:19:31;21.60;99.90
13148;DHT22;6639;50.956;4.242;2023-09-19T00:21:59;21.70;99.90
13148;DHT22;6639;50.956;4.242;2023-09-19T00:24:26;21.60;99.90
13148;DHT22;6639;50.956;4.242;2023-09-19T00:26:54;21.80;99.90
13148;DHT22;6639;50.956;4.242;2023-09-19T00:29:22;22.00;99.90
13148;DHT22;6639;50.956;4.242;2023-09-19T00:31:49;21.90;99.90
13148;DHT22;6639;50.956;4.242;2023-09-19T00:34:16;21.90;99.90
13148;DHT22;6639;50.956;4.242;2023-09-19T00:36:43;22.20;99.90
13148;DHT22;6639;50.956;4.242;2023-09-19T00:39:12;22.20;99.90
13148;DHT22;6639;50.956;4.242;2023-09-19T00:41:39;22.30;99.90
13148;DHT22;6639;50.956;4.242;2023-09-19T00:44:06;22.50;99.90
13148;DHT22;6639;50.956;4.242;2023-09-19T00:46:35;22.40;99.90
13148;DHT22;6639;50.956;4.242;2023-09-19T00:49:02;22.30;99.90
13148;DHT22;6639;50.956;4.242;2023-09-19T00:51:30;22.00;99.90
13148;DHT22;6639;50.956;4.242;2023-09-19T00:53:57;22.00;99.90
13148;DHT22;6639;50.956;4.242;2023-09-19T00:56:26;21.90;99.90
13148;DHT22;6639;50.956;4.242;2023-09-19T00:58:53;22.20;99.90
13148;DHT22;6639;50.956;4.242;2023-09-19T01:01:21;22.30;99.90
13148;DHT22;6639;50.956;4.242;2023-09-19T01:03:48;22.40;99.90
13148;DHT22;6639;50.956;4.242;2023-09-19T01:06:15;22.30;99.90
13148;DHT22;6639;50.956;4.242;2023-09-19T01:08:43;22.00;99.90
13148;DHT22;6639;50.956;4.242;2023-09-19T01:11:15;21.60;99.90
13148;DHT22;6639;50.956;4.242;2023-09-19T01:13:55;21.40;99.90
13148;DHT22;6639;50.956;4.242;2023-09-19T01:16:32;21.30;99.90
13148;DHT22;6639;50.956;4.242;2023-09-19T01:19:12;21.80;99.90
13148;DHT22;6639;50.956;4.242;2023-09-19T01:21:55;21.90;99.90
13148;DHT22;6639;50.956;4.242;2023-09-19T01:24:53;21.90;99.90
13148;DHT22;6639;50.956;4.242;2023-09-19T01:27:52;21.70;99.90
13148;DHT22;6639;50.956;4.242;2023-09-19T01:30:26;22.10;99.90
13148;DHT22;6639;50.956;4.242;2023-09-19T01:32:55;22.20;99.90
13148;DHT22;6639;50.956;4.242;2023-09-19T01:35:23;22.50;99.90
13148;DHT22;6639;50.956;4.242;2023-09-19T01:37:50;22.10;99.90
13148;DHT22;6639;50.956;4.242;2023-09-19T01:40:21;22.20;99.90
13148;DHT22;6639;50.956;4.242;2023-09-19T01:42:56;22.20;99.90
13148;DHT22;6639;50.956;4.242;2023-09-19T01:45:35;22.10;99.90
13148;DHT22;6639;50.956;4.242;2023-09-19T01:48:15;22.10;99.90
13148;DHT22;6639;50.956;4.242;2023-09-19T01:50:52;22.00;99.90
13148;DHT22;6639;50.956;4.242;2023-09-19T01:53:25;21.70;99.90
13148;DHT22;6639;50.956;4.242;2023-09-19T01:55:54;22.00;99.90
13148;DHT22;6639;50.956;4.242;2023-09-19T01:58:27;22.10;99.90
13148;DHT22;6639;50.956;4.242;2023-09-19T02:00:58;21.80;99.90
13148;DHT22;6639;50.956;4.242;2023-09-19T02:03:27;21.70;99.90
13148;DHT22;6639;50.956;4.242;2023-09-19T02:05:54;21.80;99.90
13148;DHT22;6639;50.956;4.242;2023-09-19T02:08:22;22.00;99.90
13148;DHT22;6639;50.956;4.242;2023-09-19T02:10:51;21.80;99.90
13148;DHT22;6639;50.956;4.242;2023-09-19T02:13:19;21.80;99.90
13148;DHT22;6639;50.956;4.242;2023-09-19T02:15:46;21.70;99.90
13148;DHT22;6639;50.956;4.242;2023-09-19T02:18:15;21.30;99.90
13148;DHT22;6639;50.956;4.242;2023-09-19T02:20:43;21.40;99.90
13148;DHT22;6639;50.956;4.242;2023-09-19T02:23:10;21.30;99.90
13148;DHT22;6639;50.956;4.242;2023-09-19T02:25:38;21.40;99.90
13148;DHT22;6639;50.956;4.242;2023-09-19T02:28:06;21.40;99.90
13148;DHT22;6639;50.956;4.242;2023-09-19T02:30:34;21.20;99.90
13148;DHT22;6639;50.956;4.242;2023-09-19T02:33:01;21.10;99.90
13148;DHT22;6639;50.956;4.242;2023-09-19T02:35:30;21.10;99.90
13148;DHT22;6639;50.956;4.242;2023-09-19T02:38:00;21.10;99.90
13148;DHT22;6639;50.956;4.242;2023-09-19T02:40:27;21.30;99.90
13148;DHT22;6639;50.956;4.242;2023-09-19T02:42:55;21.40;99.90
13148;DHT22;6639;50.956;4.242;2023-09-19T02:45:24;21.30;99.90
13148;DHT22;6639;50.956;4.242;2023-09-19T02:47:52;21.40;99.90
13148;DHT22;6639;50.956;4.242;2023-09-19T02:50:19;21.10;99.90
13148;DHT22;6639;50.956;4.242;2023-09-19T02:52:47;20.80;99.90
13148;DHT22;6639;50.956;4.242;2023-09-19T02:55:16;21.00;99.90
13148;DHT22;6639;50.956;4.242;2023-09-19T02:57:46;20.60;99.90
13148;DHT22;6639;50.956;4.242;2023-09-19T03:00:14;20.70;99.90
13148;DHT22;6639;50.956;4.242;2023-09-19T03:02:41;20.80;99.90
13148;DHT22;6639;50.956;4.242;2023-09-19T03:05:09;20.50;99.90
13148;DHT22;6639;50.956;4.242;2023-09-19T03:07:37;20.40;99.90
13148;DHT22;6639;50.956;4.242;2023-09-19T03:10:07;20.30;99.90
13148;DHT22;6639;50.956;4.242;2023-09-19T03:12:34;20.50;99.90
13148;DHT22;6639;50.956;4.242;2023-09-19T03:15:01;20.20;99.90
13148;DHT22;6639;50.956;4.242;2023-09-19T03:17:29;19.90;99.90
13148;DHT22;6639;50.956;4.242;2023-09-19T03:19:58;19.50;99.90
13148;DHT22;6639;50.956;4.242;2023-09-19T03:22:26;19.40;99.90
13148;DHT22;6639;50.956;4.242;2023-09-19T03:24:53;19.60;99.90
13148;DHT22;6639;50.956;4.242;2023-09-19T03:27:21;19.70;99.90
13148;DHT22;6639;50.956;4.242;2023-09-19T03:29:48;19.80;99.90
13148;DHT22;6639;50.956;4.242;2023-09-19T03:32:15;20.00;99.90
13148;DHT22;6639;50.956;4.242;2023-09-19T03:34:42;20.20;99.90
13148;DHT22;6639;50.956;4.242;2023-09-19T03:37:09;20.10;99.90
13148;DHT22;6639;50.956;4.242;2023-09-19T03:39:37;20.00;99.90
13148;DHT22;6639;50.956;4.242;2023-09-19T03:42:05;20.00;99.90
13148;DHT22;6639;50.956;4.242;2023-09-19T03:44:34;20.00;99.90
13148;DHT22;6639;50.956;4.242;2023-09-19T03:47:00;20.00;99.90
13148;DHT22;6639;50.956;4.242;2023-09-19T03:49:30;20.20;99.90
13148;DHT22;6639;50.956;4.242;2023-09-19T03:51:57;20.50;99.90
13148;DHT22;6639;50.956;4.242;2023-09-19T03:54:24;20.50;99.90
13148;DHT22;6639;50.956;4.242;2023-09-19T03:56:51;20.60;99.90
13148;DHT22;6639;50.956;4.242;2023-09-19T03:59:18;20.20;99.90
13148;DHT22;6639;50.956;4.242;2023-09-19T04:01:47;20.40;99.90
13148;DHT22;6639;50.956;4.242;2023-09-19T04:04:14;20.70;99.90
13148;DHT22;6639;50.956;4.242;2023-09-19T04:06:41;20.70;99.90
13148;DHT22;6639;50.956;4.242;2023-09-19T04:09:08;20.60;99.90
13148;DHT22;6639;50.956;4.242;2023-09-19T04:11:35;20.60;99.90
13148;DHT22;6639;50.956;4.242;2023-09-19T04:14:03;20.60;99.90
13148;DHT22;6639;50.956;4.242;2023-09-19T04:16:30;20.60;99.90
13148;DHT22;6639;50.956;4.242;2023-09-19T04:18:58;20.90;99.90
13148;DHT22;6639;50.956;4.242;2023-09-19T04:21:25;20.70;99.90
13148;DHT22;6639;50.956;4.242;2023-09-19T04:23:53;20.60;99.90
13148;DHT22;6639;50.956;4.242;2023-09-19T04:26:20;20.10;99.90
13148;DHT22;6639;50.956;4.242;2023-09-19T04:28:47;20.10;99.90
13148;DHT22;6639;50.956;4.242;2023-09-19T04:31:14;20.20;99.90
13148;DHT22;6639;50.956;4.242;2023-09-19T04:33:42;20.20;99.90
13148;DHT22;6639;50.956;4.242;2023-09-19T04:36:11;20.40;99.90
13148;DHT22;6639;50.956;4.242;2023-09-19T04:38:38;20.10;99.90
13148;DHT22;6639;50.956;4.242;2023-09-19T04:41:05;20.20;99.90
13148;DHT22;6639;50.956;4.242;2023-09-19T04:43:32;20.30;99.90
13148;DHT22;6639;50.956;4.242;2023-09-19T04:45:59;20.40;99.90
13148;DHT22;6639;50.956;4.242;2023-09-19T04:48:26;20.30;99.90
13148;DHT22;6639;50.956;4.242;2023-09-19T04:50:54;20.30;99.90
13148;DHT22;6639;50.956;4.242;2023-09-19T04:53:22;20.20;99.90
13148;DHT22;6639;50.956;4.242;2023-09-19T04:55:50;20.00;99.90
13148;DHT22;6639;50.956;4.242;2023-09-19T04:58:21;20.10;99.90
13148;DHT22;6639;50.956;4.242;2023-09-19T05:00:48;20.00;99.90
13148;DHT22;6639;50.956;4.242;2023-09-19T05:03:17;19.90;99.90
13148;DHT22;6639;50.956;4.242;2023-09-19T05:05:46;20.40;99.90
13148;DHT22;6639;50.956;4.242;2023-09-19T05:08:13;20.30;99.90
13148;DHT22;6639;50.956;4.242;2023-09-19T05:10:42;20.30;99.90
13148;DHT22;6639;50.956;4.242;2023-09-19T05:13:09;20.20;99.90
13148;DHT22;6639;50.956;4.242;2023-09-19T05:15:37;19.80;99.90
13148;DHT22;6639;50.956;4.242;2023-09-19T05:18:05;20.10;99.90
13148;DHT22;6639;50.956;4.242;2023-09-19T05:20:32;19.90;99.90
13148;DHT22;6639;50.956;4.242;2023-09-19T05:23:02;19.90;99.90
13148;DHT22;6639;50.956;4.242;2023-09-19T05:25:33;20.00;99.90
13148;DHT22;6639;50.956;4.242;2023-09-19T05:28:04;20.00;99.90
13148;DHT22;6639;50.956;4.242;2023-09-19T05:30:33;20.20;99.90
13148;DHT22;6639;50.956;4.242;2023-09-19T05:33:01;20.20;99.90
13148;DHT22;6639;50.956;4.242;2023-09-19T05:35:30;20.00;99.90
13148;DHT22;6639;50.956;4.242;2023-09-19T05:37:57;20.00;99.90
13148;DHT22;6639;50.956;4.242;2023-09-19T05:40:24;20.10;99.90
13148;DHT22;6639;50.956;4.242;2023-09-19T05:42:51;20.20;99.90
13148;DHT22;6639;50.956;4.242;2023-09-19T05:45:19;19.90;99.90
13148;DHT22;6639;50.956;4.242;2023-09-19T05:47:48;19.90;99.90
13148;DHT22;6639;50.956;4.242;2023-09-19T05:50:15;20.00;99.90
13148;DHT22;6639;50.956;4.242;2023-09-19T05:52:50;20.00;99.90
13148;DHT22;6639;50.956;4.242;2023-09-19T05:55:18;20.20;99.90
13148;DHT22;6639;50.956;4.242;2023-09-19T05:57:50;20.10;99.90
13148;DHT22;6639;50.956;4.242;2023-09-19T06:00:19;20.10;99.90
13148;DHT22;6639;50.956;4.242;2023-09-19T06:02:50;19.80;99.90
13148;DHT22;6639;50.956;4.242;2023-09-19T06:05:17;20.00;99.90
13148;DHT22;6639;50.956;4.242;2023-09-19T06:07:44;20.40;99.90
13148;DHT22;6639;50.956;4.242;2023-09-19T06:10:12;20.40;99.90
13148;DHT22;6639;50.956;4.242;2023-09-19T06:12:40;20.20;99.90
13148;DHT22;6639;50.956;4.242;2023-09-19T06:15:10;20.30;99.90
13148;DHT22;6639;50.956;4.242;2023-09-19T06:17:42;20.30;99.90
13148;DHT22;6639;50.956;4.242;2023-09-19T06:20:11;20.20;99.90
13148;DHT22;6639;50.956;4.242;2023-09-19T06:22:40;20.20;99.90
13148;DHT22;6639;50.956;4.242;2023-09-19T06:25:08;20.10;99.90
13148;DHT22;6639;50.956;4.242;2023-09-19T06:27:37;20.20;99.90
13148;DHT22;6639;50.956;4.242;2023-09-19T06:30:06;20.30;99.90
13148;DHT22;6639;50.956;4.242;2023-09-19T06:32:34;20.20;99.90
13148;DHT22;6639;50.956;4.242;2023-09-19T06:35:02;20.50;99.90
13148;DHT22;6639;50.956;4.242;2023-09-19T06:37:32;20.10;99.90
13148;DHT22;6639;50.956;4.242;2023-09-19T06:40:00;20.10;99.90
13148;DHT22;6639;50.956;4.242;2023-09-19T06:42:30;20.20;99.90
13148;DHT22;6639;50.956;4.242;2023-09-19T06:44:57;20.20;99.90
13148;DHT22;6639;50.956;4.242;2023-09-19T06:47:23;20.00;99.90
13148;DHT22;6639;50.956;4.242;2023-09-19T06:49:51;20.00;99.90
13148;DHT22;6639;50.956;4.242;2023-09-19T06:52:20;20.10;99.90
13148;DHT22;6639;50.956;4.242;2023-09-19T06:54:47;20.20;99.90
13148;DHT22;6639;50.956;4.242;2023-09-19T06:57:15;20.10;99.90
13148;DHT22;6639;50.956;4.242;2023-09-19T06:59:42;20.20;99.90
13148;DHT22;6639;50.956;4.242;2023-09-19T07:02:10;20.50;99.90
13148;DHT22;6639;50.956;4.242;2023-09-19T07:04:37;20.70;99.90
13148;DHT22;6639;50.956;4.242;2023-09-19T07:07:04;20.30;99.90
13148;DHT22;6639;50.956;4.242;2023-09-19T07:09:32;20.40;99.90
13148;DHT22;6639;50.956;4.242;2023-09-19T07:11:59;20.30;99.90
13148;DHT22;6639;50.956;4.242;2023-09-19T07:14:26;20.30;99.90
13148;DHT22;6639;50.956;4.242;2023-09-19T07:16:53;20.70;99.90
13148;DHT22;6639;50.956;4.242;2023-09-19T07:19:26;21.00;99.90
13148;DHT22;6639;50.956;4.242;2023-09-19T07:21:57;21.40;99.90
13148;DHT22;6639;50.956;4.242;2023-09-19T07:24:24;21.60;99.90
13148;DHT22;6639;50.956;4.242;2023-09-19T07:26:55;21.70;99.90
13148;DHT22;6639;50.956;4.242;2023-09-19T07:29:22;22.00;99.90
13148;DHT22;6639;50.956;4.242;2023-09-19T07:31:49;22.10;99.90
13148;DHT22;6639;50.956;4.242;2023-09-19T07:34:16;22.30;99.90
13148;DHT22;6639;50.956;4.242;2023-09-19T07:36:43;22.00;99.90
13148;DHT22;6639;50.956;4.242;2023-09-19T07:39:12;21.60;99.90
13148;DHT22;6639;50.956;4.242;2023-09-19T07:41:39;22.00;99.90
13148;DHT22;6639;50.956;4.242;2023-09-19T07:44:08;22.10;99.90
13148;DHT22;6639;50.956;4.242;2023-09-19T07:46:35;22.10;99.90
13148;DHT22;6639;50.956;4.242;2023-09-19T07:49:02;22.20;99.90
13148;DHT22;6639;50.956;4.242;2023-09-19T07:51:30;22.40;99.90
13148;DHT22;6639;50.956;4.242;2023-09-19T07:53:58;22.70;99.90
13148;DHT22;6639;50.956;4.242;2023-09-19T07:56:25;23.00;99.90
13148;DHT22;6639;50.956;4.242;2023-09-19T07:58:53;23.00;99.90
13148;DHT22;6639;50.956;4.242;2023-09-19T08:01:21;23.30;99.90
13148;DHT22;6639;50.956;4.242;2023-09-19T08:03:49;23.80;99.90
13148;DHT22;6639;50.956;4.242;2023-09-19T08:06:16;23.30;99.90
13148;DHT22;6639;50.956;4.242;2023-09-19T08:08:44;23.50;99.90
13148;DHT22;6639;50.956;4.242;2023-09-19T08:11:11;23.70;99.90
13148;DHT22;6639;50.956;4.242;2023-09-19T08:13:39;23.50;99.90
13148;DHT22;6639;50.956;4.242;2023-09-19T08:16:09;23.00;99.90
13148;DHT22;6639;50.956;4.242;2023-09-19T08:18:37;23.10;99.90
13148;DHT22;6639;50.956;4.242;2023-09-19T08:21:05;23.30;99.90
13148;DHT22;6639;50.956;4.242;2023-09-19T08:23:33;23.10;99.90
13148;DHT22;6639;50.956;4.242;2023-09-19T08:26:00;23.20;99.90
13148;DHT22;6639;50.956;4.242;2023-09-19T08:28:32;23.50;99.90
13148;DHT22;6639;50.956;4.242;2023-09-19T08:31:02;23.70;99.90
13148;DHT22;6639;50.956;4.242;2023-09-19T08:33:29;23.80;99.90
13148;DHT22;6639;50.956;4.242;2023-09-19T08:35:58;23.70;99.90
13148;DHT22;6639;50.956;4.242;2023-09-19T08:38:25;23.70;99.90
13148;DHT22;6639;50.956;4.242;2023-09-19T08:40:57;23.70;99.90
13148;DHT22;6639;50.956;4.242;2023-09-19T08:43:24;24.10;99.90
13148;DHT22;6639;50.956;4.242;2023-09-19T08:45:53;23.60;99.90
13148;DHT22;6639;50.956;4.242;2023-09-19T08:48:25;23.50;99.90
13148;DHT22;6639;50.956;4.242;2023-09-19T08:51:00;23.70;99.90
13148;DHT22;6639;50.956;4.242;2023-09-19T08:53:34;23.90;99.90
13148;DHT22;6639;50.956;4.242;2023-09-19T08:56:03;23.70;99.90
13148;DHT22;6639;50.956;4.242;2023-09-19T08:58:41;23.10;99.90
13148;DHT22;6639;50.956;4.242;2023-09-19T09:01:13;22.90;99.90
13148;DHT22;6639;50.956;4.242;2023-09-19T09:03:42;23.40;99.90
13148;DHT22;6639;50.956;4.242;2023-09-19T09:06:13;23.70;99.90
13148;DHT22;6639;50.956;4.242;2023-09-19T09:08:40;23.60;99.90
13148;DHT22;6639;50.956;4.242;2023-09-19T09:11:08;23.80;99.90
13148;DHT22;6639;50.956;4.242;2023-09-19T09:13:36;23.90;99.90
13148;DHT22;6639;50.956;4.242;2023-09-19T09:16:04;24.00;99.90
13148;DHT22;6639;50.956;4.242;2023-09-19T09:18:31;24.10;99.90
13148;DHT22;6639;50.956;4.242;2023-09-19T09:20:58;24.00;99.90
13148;DHT22;6639;50.956;4.242;2023-09-19T09:23:27;23.80;99.90
13148;DHT22;6639;50.956;4.242;2023-09-19T09:25:56;23.80;99.90
13148;DHT22;6639;50.956;4.242;2023-09-19T09:28:26;23.60;99.90
13148;DHT22;6639;50.956;4.242;2023-09-19T09:30:54;23.10;99.90
13148;DHT22;6639;50.956;4.242;2023-09-19T09:33:21;22.90;99.90
13148;DHT22;6639;50.956;4.242;2023-09-19T09:35:50;23.60;99.90
13148;DHT22;6639;50.956;4.242;2023-09-19T09:38:22;23.50;99.90
13148;DHT22;6639;50.956;4.242;2023-09-19T09:40:53;23.70;99.90
13148;DHT22;6639;50.956;4.242;2023-09-19T09:43:29;23.70;99.90
13148;DHT22;6639;50.956;4.242;2023-09-19T09:46:08;23.90;99.90
13148;DHT22;6639;50.956;4.242;2023-09-19T09:48:57;23.40;99.90
13148;DHT22;6639;50.956;4.242;2023-09-19T09:51:38;23.40;99.90
13148;DHT22;6639;50.956;4.242;2023-09-19T09:54:11;23.40;99.90
13148;DHT22;6639;50.956;4.242;2023-09-19T09:56:54;23.20;99.90
13148;DHT22;6639;50.956;4.242;2023-09-19T09:59:44;23.30;99.90
13148;DHT22;6639;50.956;4.242;2023-09-19T10:02:13;23.50;99.90
13148;DHT22;6639;50.956;4.242;2023-09-19T10:04:41;24.10;99.90
13148;DHT22;6639;50.956;4.242;2023-09-19T10:07:25;24.50;99.90
13148;DHT22;6639;50.956;4.242;2023-09-19T10:09:53;24.70;99.90
13148;DHT22;6639;50.956;4.242;2023-09-19T10:12:27;24.40;99.90
13148;DHT22;6639;50.956;4.242;2023-09-19T10:14:57;24.80;99.90
13148;DHT22;6639;50.956;4.242;2023-09-19T10:17:26;24.90;99.80
13148;DHT22;6639;50.956;4.242;2023-09-19T10:19:55;25.20;99.80
13148;DHT22;6639;50.956;4.242;2023-09-19T10:22:24;25.30;99.50
13148;DHT22;6639;50.956;4.242;2023-09-19T10:24:58;25.40;99.50
13148;DHT22;6639;50.956;4.242;2023-09-19T10:27:29;25.30;99.60
13148;DHT22;6639;50.956;4.242;2023-09-19T10:30:05;25.60;99.20
13148;DHT22;6639;50.956;4.242;2023-09-19T10:32:35;25.80;99.00
13148;DHT22;6639;50.956;4.242;2023-09-19T10:35:02;25.60;98.10
13148;DHT22;6639;50.956;4.242;2023-09-19T10:37:32;25.70;99.30
13148;DHT22;6639;50.956;4.242;2023-09-19T10:40:00;26.20;98.50
13148;DHT22;6639;50.956;4.242;2023-09-19T10:42:31;26.20;97.80
13148;DHT22;6639;50.956;4.242;2023-09-19T10:45:00;26.00;98.20
13148;DHT22;6639;50.956;4.242;2023-09-19T10:47:33;25.70;98.60
13148;DHT22;6639;50.956;4.242;2023-09-19T10:50:04;25.60;98.70
13148;DHT22;6639;50.956;4.242;2023-09-19T10:52:40;25.50;98.50
13148;DHT22;6639;50.956;4.242;2023-09-19T10:55:08;25.50;98.60
13148;DHT22;6639;50.956;4.242;2023-09-19T10:57:46;25.60;98.70
13148;DHT22;6639;50.956;4.242;2023-09-19T11:00:14;25.80;98.60
13148;DHT22;6639;50.956;4.242;2023-09-19T11:03:18;25.50;99.10
13148;DHT22;6639;50.956;4.242;2023-09-19T11:06:10;25.90;98.60
13148;DHT22;6639;50.956;4.242;2023-09-19T11:09:06;26.40;97.80
13148;DHT22;6639;50.956;4.242;2023-09-19T11:11:48;26.20;98.00
13148;DHT22;6639;50.956;4.242;2023-09-19T11:14:32;26.30;98.00
13148;DHT22;6639;50.956;4.242;2023-09-19T11:20:25;26.30;97.60
13148;DHT22;6639;50.956;4.242;2023-09-19T11:23:23;26.30;97.80
13148;DHT22;6639;50.956;4.242;2023-09-19T11:25:51;25.70;97.90
13148;DHT22;6639;50.956;4.242;2023-09-19T11:28:35;25.70;98.40
13148;DHT22;6639;50.956;4.242;2023-09-19T11:34:46;25.70;98.30
13148;DHT22;6639;50.956;4.242;2023-09-19T11:40:45;25.20;98.80
13148;DHT22;6639;50.956;4.242;2023-09-19T11:43:31;25.30;98.80
13148;DHT22;6639;50.956;4.242;2023-09-19T11:46:17;25.20;98.90
13148;DHT22;6639;50.956;4.242;2023-09-19T11:48:48;24.90;99.20
13148;DHT22;6639;50.956;4.242;2023-09-19T11:51:20;24.90;99.20
13148;DHT22;6639;50.956;4.242;2023-09-19T11:53:54;24.60;99.70
13148;DHT22;6639;50.956;4.242;2023-09-19T11:56:22;24.90;99.20
13148;DHT22;6639;50.956;4.242;2023-09-19T11:58:50;24.80;99.50
13148;DHT22;6639;50.956;4.242;2023-09-19T12:01:23;24.70;99.60
13148;DHT22;6639;50.956;4.242;2023-09-19T12:03:54;24.60;99.70
13148;DHT22;6639;50.956;4.242;2023-09-19T12:06:24;24.80;99.60
13148;DHT22;6639;50.956;4.242;2023-09-19T12:08:51;25.00;99.30
13148;DHT22;6639;50.956;4.242;2023-09-19T12:11:21;24.90;98.90
13148;DHT22;6639;50.956;4.242;2023-09-19T12:13:49;24.40;99.40
13148;DHT22;6639;50.956;4.242;2023-09-19T12:16:17;24.30;99.80
13148;DHT22;6639;50.956;4.242;2023-09-19T12:18:47;24.40;99.70
13148;DHT22;6639;50.956;4.242;2023-09-19T12:21:27;24.60;99.50
13148;DHT22;6639;50.956;4.242;2023-09-19T12:24:05;24.20;99.70
13148;DHT22;6639;50.956;4.242;2023-09-19T12:26:39;24.10;99.90
13148;DHT22;6639;50.956;4.242;2023-09-19T12:29:14;24.30;99.90
13148;DHT22;6639;50.956;4.242;2023-09-19T12:31:53;24.50;99.50
13148;DHT22;6639;50.956;4.242;2023-09-19T12:34:24;24.20;99.90
13148;DHT22;6639;50.956;4.242;2023-09-19T12:37:09;24.20;99.80
13148;DHT22;6639;50.956;4.242;2023-09-19T12:39:42;23.80;99.90
13148;DHT22;6639;50.956;4.242;2023-09-19T12:42:12;23.70;99.90
13148;DHT22;6639;50.956;4.242;2023-09-19T12:44:42;24.00;99.90
13148;DHT22;6639;50.956;4.242;2023-09-19T12:47:14;24.30;99.90
13148;DHT22;6639;50.956;4.242;2023-09-19T12:50:13;24.60;99.90
13148;DHT22;6639;50.956;4.242;2023-09-19T12:52:45;25.00;99.70
13148;DHT22;6639;50.956;4.242;2023-09-19T12:55:23;24.80;99.60
13148;DHT22;6639;50.956;4.242;2023-09-19T12:58:07;24.30;99.90
13148;DHT22;6639;50.956;4.242;2023-09-19T13:00:36;23.90;99.90
13148;DHT22;6639;50.956;4.242;2023-09-19T13:03:15;24.00;99.90
13148;DHT22;6639;50.956;4.242;2023-09-19T13:05:53;24.20;99.90
13148;DHT22;6639;50.956;4.242;2023-09-19T13:08:24;24.40;99.90
13148;DHT22;6639;50.956;4.242;2023-09-19T13:11:04;24.40;99.90
13148;DHT22;6639;50.956;4.242;2023-09-19T13:13:32;24.20;99.90
13148;DHT22;6639;50.956;4.242;2023-09-19T13:16:02;24.60;99.90
13148;DHT22;6639;50.956;4.242;2023-09-19T13:18:30;24.30;99.90
13148;DHT22;6639;50.956;4.242;2023-09-19T13:21:08;24.40;99.90
13148;DHT22;6639;50.956;4.242;2023-09-19T13:23:39;24.50;99.90
13148;DHT22;6639;50.956;4.242;2023-09-19T13:26:07;23.50;99.90
13148;DHT22;6639;50.956;4.242;2023-09-19T13:28:34;23.20;99.90
13148;DHT22;6639;50.956;4.242;2023-09-19T13:31:01;23.10;99.90
13148;DHT22;6639;50.956;4.242;2023-09-19T13:33:28;22.80;99.90
13148;DHT22;6639;50.956;4.242;2023-09-19T13:35:56;23.00;99.90
13148;DHT22;6639;50.956;4.242;2023-09-19T13:38:23;23.00;99.90
13148;DHT22;6639;50.956;4.242;2023-09-19T13:40:52;23.10;99.90
13148;DHT22;6639;50.956;4.242;2023-09-19T13:43:19;23.10;99.90
13148;DHT22;6639;50.956;4.242;2023-09-19T13:45:47;23.40;99.90
13148;DHT22;6639;50.956;4.242;2023-09-19T13:48:15;23.40;99.90
13148;DHT22;6639;50.956;4.242;2023-09-19T13:50:45;23.50;99.90
13148;DHT22;6639;50.956;4.242;2023-09-19T13:53:13;23.20;99.90
13148;DHT22;6639;50.956;4.242;2023-09-19T13:55:40;23.20;99.90
13148;DHT22;6639;50.956;4.242;2023-09-19T13:58:08;23.40;99.90
13148;DHT22;6639;50.956;4.242;2023-09-19T14:00:37;23.00;99.90
13148;DHT22;6639;50.956;4.242;2023-09-19T14:03:04;22.80;99.90
13148;DHT22;6639;50.956;4.242;2023-09-19T14:05:31;23.00;99.90
13148;DHT22;6639;50.956;4.242;2023-09-19T14:07:58;23.30;99.90
13148;DHT22;6639;50.956;4.242;2023-09-19T14:10:25;23.20;99.90
13148;DHT22;6639;50.956;4.242;2023-09-19T14:12:53;23.70;99.90
13148;DHT22;6639;50.956;4.242;2023-09-19T14:15:21;24.00;99.90
13148;DHT22;6639;50.956;4.242;2023-09-19T14:17:55;24.30;99.90
13148;DHT22;6639;50.956;4.242;2023-09-19T14:20:22;24.80;99.90
13148;DHT22;6639;50.956;4.242;2023-09-19T14:22:49;24.80;99.90
13148;DHT22;6639;50.956;4.242;2023-09-19T14:25:16;24.60;99.90
13148;DHT22;6639;50.956;4.242;2023-09-19T14:27:43;24.70;99.90
13148;DHT22;6639;50.956;4.242;2023-09-19T14:30:11;24.70;99.90
13148;DHT22;6639;50.956;4.242;2023-09-19T14:32:39;24.70;99.90
13148;DHT22;6639;50.956;4.242;2023-09-19T14:35:07;24.40;99.90
13148;DHT22;6639;50.956;4.242;2023-09-19T14:37:35;24.20;99.90
13148;DHT22;6639;50.956;4.242;2023-09-19T14:40:05;24.10;99.90
13148;DHT22;6639;50.956;4.242;2023-09-19T14:42:34;24.40;99.90
13148;DHT22;6639;50.956;4.242;2023-09-19T14:45:04;24.30;99.90
13148;DHT22;6639;50.956;4.242;2023-09-19T14:47:32;24.20;99.90
13148;DHT22;6639;50.956;4.242;2023-09-19T14:50:02;24.20;99.90
13148;DHT22;6639;50.956;4.242;2023-09-19T14:52:32;24.20;99.90
13148;DHT22;6639;50.956;4.242;2023-09-19T14:55:00;24.80;99.90
13148;DHT22;6639;50.956;4.242;2023-09-19T14:57:27;24.60;99.90
13148;DHT22;6639;50.956;4.242;2023-09-19T14:59:55;24.60;99.90
13148;DHT22;6639;50.956;4.242;2023-09-19T15:02:22;24.60;99.90
13148;DHT22;6639;50.956;4.242;2023-09-19T15:04:49;24.70;99.90
13148;DHT22;6639;50.956;4.242;2023-09-19T15:07:17;24.60;99.90
13148;DHT22;6639;50.956;4.242;2023-09-19T15:09:45;24.40;99.90
13148;DHT22;6639;50.956;4.242;2023-09-19T15:12:12;24.10;99.90
13148;DHT22;6639;50.956;4.242;2023-09-19T15:14:40;23.90;99.90
13148;DHT22;6639;50.956;4.242;2023-09-19T15:17:08;24.10;99.90
13148;DHT22;6639;50.956;4.242;2023-09-19T15:19:35;24.30;99.90
13148;DHT22;6639;50.956;4.242;2023-09-19T15:22:04;24.30;99.90
13148;DHT22;6639;50.956;4.242;2023-09-19T15:24:32;24.20;99.90
13148;DHT22;6639;50.956;4.242;2023-09-19T15:27:00;24.00;99.90
13148;DHT22;6639;50.956;4.242;2023-09-19T15:29:27;23.90;99.90
13148;DHT22;6639;50.956;4.242;2023-09-19T15:31:55;24.00;99.90
13148;DHT22;6639;50.956;4.242;2023-09-19T15:34:24;23.70;99.90
13148;DHT22;6639;50.956;4.242;2023-09-19T15:36:51;24.00;99.90
13148;DHT22;6639;50.956;4.242;2023-09-19T15:39:18;24.40;99.90
13148;DHT22;6639;50.956;4.242;2023-09-19T15:41:50;24.00;99.90
13148;DHT22;6639;50.956;4.242;2023-09-19T15:44:18;24.00;99.90
13148;DHT22;6639;50.956;4.242;2023-09-19T15:46:45;23.70;99.90
13148;DHT22;6639;50.956;4.242;2023-09-19T15:49:13;23.60;99.90
13148;DHT22;6639;50.956;4.242;2023-09-19T15:51:40;23.80;99.90
13148;DHT22;6639;50.956;4.242;2023-09-19T15:54:10;24.20;99.90
13148;DHT22;6639;50.956;4.242;2023-09-19T15:56:38;24.00;99.90
13148;DHT22;6639;50.956;4.242;2023-09-19T15:59:08;23.90;99.90
13148;DHT22;6639;50.956;4.242;2023-09-19T16:01:37;23.60;99.90
13148;DHT22;6639;50.956;4.242;2023-09-19T16:04:06;24.00;99.90
13148;DHT22;6639;50.956;4.242;2023-09-19T16:06:36;24.10;99.90
13148;DHT22;6639;50.956;4.242;2023-09-19T16:09:04;24.00;99.90
13148;DHT22;6639;50.956;4.242;2023-09-19T16:11:33;24.00;99.90
13148;DHT22;6639;50.956;4.242;2023-09-19T16:14:00;23.70;99.90